Time;durP1;ratioP1;P1;durP2;ratioP2;P2;SDS_P1;SDS_P2;PMS_P1;PMS_P2;Temp;Humidity;BMP_temperature;BMP_pressure;BME280_temperature;BME280_humidity;BME280_pressure;Samples;Min_cycle;Max_cycle;Signal;HPM_P1;HPM_P2
2022/09/30 00:00:45;;;;;;;3.13;2.07;;;;;;;;;;5020595;28;92003;-55
2022/09/30 00:03:15;;;;;;;2.83;2.33;;;;;;;;;;5024374;28;92824;-56
2022/09/30 00:05:43;;;;;;;2.77;2.10;;;;;;;;;;5030107;28;93819;-55
2022/09/30 00:08:11;;;;;;;3.13;1.83;;;;;;;;;;5019299;28;94991;-55
2022/09/30 00:10:40;;;;;;;5.27;2.60;;;;;;;;;;5018798;28;92114;-56
2022/09/30 00:13:08;;;;;;;5.40;2.80;;;;;;;;;;5020341;28;91995;-55
2022/09/30 00:15:36;;;;;;;2.73;2.30;;;;;;;;;;4978060;28;1198571;-56
2022/09/30 00:18:05;;;;;;;2.27;1.70;;;;;;;;;;5018669;28;92482;-55
2022/09/30 00:20:35;;;;;;;2.90;1.90;;;;;;;;;;5002877;28;92055;-55
2022/09/30 00:23:03;;;;;;;4.13;2.23;;;;;;;;;;5002327;28;91331;-55
2022/09/30 00:25:31;;;;;;;2.97;1.97;;;;;;;;;;5020075;28;92893;-55
2022/09/30 00:27:59;;;;;;;3.93;1.80;;;;;;;;;;5018935;28;93385;-56
2022/09/30 00:30:28;;;;;;;2.73;1.87;;;;;;;;;;4999293;28;92911;-55
2022/09/30 00:32:56;;;;;;;3.33;1.67;;;;;;;;;;5001430;28;92081;-55
2022/09/30 00:35:24;;;;;;;3.10;1.73;;;;;;;;;;4999640;28;94108;-54
2022/09/30 00:37:54;;;;;;;3.33;2.00;;;;;;;;;;4998573;28;92992;-54
2022/09/30 00:40:22;;;;;;;2.53;2.13;;;;;;;;;;5007749;28;93005;-55
2022/09/30 00:42:50;;;;;;;1.60;1.50;;;;;;;;;;5000562;28;92191;-55
2022/09/30 00:45:19;;;;;;;4.43;2.40;;;;;;;;;;5005595;28;92958;-56
2022/09/30 00:47:50;;;;;;;2.50;1.77;;;;;;;;;;5000887;28;95007;-55
2022/09/30 00:50:23;;;;;;;2.87;1.70;;;;;;;;;;4999777;28;92945;-56
2022/09/30 00:52:54;;;;;;;2.53;1.83;;;;;;;;;;4996806;28;91999;-55
2022/09/30 00:55:31;;;;;;;4.10;1.90;;;;;;;;;;5002202;28;95163;-56
2022/09/30 00:58:00;;;;;;;4.10;2.33;;;;;;;;;;5011676;28;93818;-56
2022/09/30 01:00:28;;;;;;;2.50;1.53;;;;;;;;;;5001125;28;92068;-55
2022/09/30 01:02:56;;;;;;;2.83;1.67;;;;;;;;;;5001016;28;92050;-55
2022/09/30 01:05:26;;;;;;;2.57;1.20;;;;;;;;;;5001573;28;94249;-57
2022/09/30 01:07:56;;;;;;;5.50;2.07;;;;;;;;;;5003116;28;94015;-56
2022/09/30 01:10:25;;;;;;;2.07;1.70;;;;;;;;;;5008033;28;92418;-56
2022/09/30 01:12:53;;;;;;;1.73;1.20;;;;;;;;;;5005778;28;91381;-56
2022/09/30 01:15:22;;;;;;;1.30;1.20;;;;;;;;;;5001750;28;94357;-56
2022/09/30 01:17:51;;;;;;;2.23;1.63;;;;;;;;;;4999696;28;92543;-56
2022/09/30 01:20:39;;;;;;;1.13;1.07;;;;;;;;;;4998643;28;93445;-57
2022/09/30 01:23:21;;;;;;;3.63;1.73;;;;;;;;;;4988716;28;92027;-55
2022/09/30 01:25:53;;;;;;;3.27;1.60;;;;;;;;;;4999535;28;94077;-56
2022/09/30 01:28:30;;;;;;;1.97;1.23;;;;;;;;;;4998849;28;92134;-56
2022/09/30 01:31:04;;;;;;;1.77;1.63;;;;;;;;;;4998494;28;92179;-56
2022/09/30 01:33:34;;;;;;;3.10;1.50;;;;;;;;;;4999017;28;92141;-57
2022/09/30 01:36:08;;;;;;;1.53;1.23;;;;;;;;;;4995947;28;93507;-55
2022/09/30 01:38:39;;;;;;;1.70;1.57;;;;;;;;;;5000359;28;93889;-57
2022/09/30 01:41:08;;;;;;;1.23;1.13;;;;;;;;;;4983260;28;92052;-57
2022/09/30 01:43:39;;;;;;;2.50;1.40;;;;;;;;;;4992814;28;92074;-56
2022/09/30 01:46:10;;;;;;;1.67;1.20;;;;;;;;;;4997462;28;94236;-57
2022/09/30 01:48:40;;;;;;;3.10;1.20;;;;;;;;;;4998648;28;94962;-58
2022/09/30 01:51:08;;;;;;;2.43;1.47;;;;;;;;;;4999435;28;92149;-58
2022/09/30 01:53:38;;;;;;;2.63;1.40;;;;;;;;;;4999182;28;92101;-56
2022/09/30 01:56:06;;;;;;;3.50;1.50;;;;;;;;;;4999743;28;92862;-56
2022/09/30 01:58:37;;;;;;;3.00;1.30;;;;;;;;;;4998490;28;93886;-56
2022/09/30 02:01:07;;;;;;;1.40;1.10;;;;;;;;;;4999990;28;92070;-55
2022/09/30 02:03:37;;;;;;;4.00;0.83;;;;;;;;;;4999293;28;91313;-56
2022/09/30 02:06:06;;;;;;;3.83;1.50;;;;;;;;;;4983454;28;92510;-56
2022/09/30 02:08:36;;;;;;;1.43;1.33;;;;;;;;;;4998843;28;92595;-56
2022/09/30 02:11:05;;;;;;;1.27;1.13;;;;;;;;;;5006785;28;93158;-55
2022/09/30 02:13:36;;;;;;;2.20;1.43;;;;;;;;;;5006179;28;92138;-56
2022/09/30 02:16:11;;;;;;;3.57;1.63;;;;;;;;;;5016769;28;93261;-56
2022/09/30 02:18:42;;;;;;;1.20;1.10;;;;;;;;;;5013274;28;92745;-55
2022/09/30 02:21:10;;;;;;;1.57;1.07;;;;;;;;;;4998468;28;93607;-55
2022/09/30 02:23:40;;;;;;;1.27;1.17;;;;;;;;;;5000358;28;92079;-55
2022/09/30 02:26:09;;;;;;;1.93;1.40;;;;;;;;;;5008080;28;93212;-56
2022/09/30 02:28:38;;;;;;;1.27;1.17;;;;;;;;;;5000728;28;93801;-56
2022/09/30 02:31:06;;;;;;;1.47;1.00;;;;;;;;;;5011136;28;91959;-54
2022/09/30 02:33:35;;;;;;;1.27;1.17;;;;;;;;;;5005460;28;92086;-55
2022/09/30 02:36:06;;;;;;;1.27;1.10;;;;;;;;;;4998389;28;93751;-55
2022/09/30 02:38:35;;;;;;;2.17;1.40;;;;;;;;;;4998208;28;93778;-55
2022/09/30 02:41:05;;;;;;;1.87;0.90;;;;;;;;;;5016432;28;92164;-54
2022/09/30 02:43:33;;;;;;;1.53;1.10;;;;;;;;;;5010745;28;92350;-55
2022/09/30 02:46:04;;;;;;;1.50;1.17;;;;;;;;;;5006001;28;94127;-56
2022/09/30 02:48:34;;;;;;;1.90;0.90;;;;;;;;;;5012039;28;93949;-55
2022/09/30 02:51:05;;;;;;;1.27;1.10;;;;;;;;;;4999391;28;91972;-55
2022/09/30 02:53:34;;;;;;;1.43;0.90;;;;;;;;;;4999274;28;93030;-54
2022/09/30 02:56:06;;;;;;;2.40;1.30;;;;;;;;;;5001478;28;92682;-56
2022/09/30 02:58:35;;;;;;;1.47;0.87;;;;;;;;;;5005995;28;94150;-55
2022/09/30 03:01:03;;;;;;;1.77;1.03;;;;;;;;;;5015408;28;92947;-54
2022/09/30 03:03:33;;;;;;;1.97;1.13;;;;;;;;;;4982002;28;92048;-56
2022/09/30 03:06:01;;;;;;;1.00;1.00;;;;;;;;;;4997405;28;93048;-55
2022/09/30 03:08:31;;;;;;;1.20;1.10;;;;;;;;;;4998847;28;94030;-56
2022/09/30 03:10:59;;;;;;;1.53;0.83;;;;;;;;;;5005465;28;92030;-54
2022/09/30 03:13:38;;;;;;;1.90;1.47;;;;;;;;;;4998997;28;91966;-55
2022/09/30 03:16:10;;;;;;;1.10;0.87;;;;;;;;;;4981508;28;93072;-54
2022/09/30 03:18:45;;;;;;;1.87;1.27;;;;;;;;;;4998208;28;92934;-56
2022/09/30 03:21:17;;;;;;;0.90;0.90;;;;;;;;;;4998354;28;92078;-55
2022/09/30 03:24:06;;;;;;;0.80;0.80;;;;;;;;;;4996641;28;92106;-56
2022/09/30 03:26:38;;;;;;;2.00;1.33;;;;;;;;;;4980250;28;93130;-55
2022/09/30 03:29:09;;;;;;;2.30;1.80;;;;;;;;;;4996248;28;93675;-54
2022/09/30 03:31:41;;;;;;;3.77;2.20;;;;;;;;;;4999178;28;92051;-54
2022/09/30 03:34:12;;;;;;;1.93;1.73;;;;;;;;;;4998406;28;92179;-56
2022/09/30 03:36:40;;;;;;;3.07;2.10;;;;;;;;;;4998869;28;94061;-55
2022/09/30 03:39:11;;;;;;;3.47;2.77;;;;;;;;;;4997885;28;92666;-56
2022/09/30 03:41:42;;;;;;;3.63;2.17;;;;;;;;;;4998977;28;92090;-55
2022/09/30 03:44:11;;;;;;;3.00;2.20;;;;;;;;;;5001102;28;92648;-55
2022/09/30 03:46:40;;;;;;;2.97;2.30;;;;;;;;;;5011192;28;94155;-55
2022/09/30 03:49:10;;;;;;;3.60;2.20;;;;;;;;;;4997003;28;92724;-56
2022/09/30 03:51:39;;;;;;;6.60;2.90;;;;;;;;;;5011514;28;92991;-55
2022/09/30 03:54:08;;;;;;;6.43;3.10;;;;;;;;;;4996699;28;92146;-54
2022/09/30 03:56:40;;;;;;;4.27;2.70;;;;;;;;;;5014881;28;94213;-56
2022/09/30 03:59:12;;;;;;;4.00;2.60;;;;;;;;;;4985222;28;92852;-55
2022/09/30 04:01:40;;;;;;;6.33;3.47;;;;;;;;;;5008362;28;92044;-55
2022/09/30 04:04:08;;;;;;;5.10;2.80;;;;;;;;;;5000626;28;92302;-56
2022/09/30 04:06:37;;;;;;;7.30;3.50;;;;;;;;;;5013790;28;94144;-55
2022/09/30 04:09:05;;;;;;;4.67;2.87;;;;;;;;;;4998078;28;92560;-55
2022/09/30 04:11:33;;;;;;;5.20;2.63;;;;;;;;;;5002086;28;92181;-55
2022/09/30 04:14:01;;;;;;;7.10;3.80;;;;;;;;;;4997162;28;92099;-55
2022/09/30 04:16:31;;;;;;;5.60;2.87;;;;;;;;;;5005026;28;93043;-55
2022/09/30 04:18:59;;;;;;;4.20;2.60;;;;;;;;;;4999778;28;93807;-56
2022/09/30 04:21:28;;;;;;;4.53;2.93;;;;;;;;;;5008331;28;91953;-55
2022/09/30 04:23:56;;;;;;;5.23;3.03;;;;;;;;;;5000688;28;92644;-55
2022/09/30 04:26:25;;;;;;;3.63;2.80;;;;;;;;;;5001149;28;93174;-55
2022/09/30 04:28:53;;;;;;;5.70;3.23;;;;;;;;;;5006471;28;93557;-55
2022/09/30 04:31:22;;;;;;;4.10;2.93;;;;;;;;;;5017746;28;92170;-54
2022/09/30 04:33:51;;;;;;;6.60;3.23;;;;;;;;;;5019899;28;91286;-55
2022/09/30 04:36:20;;;;;;;5.23;3.00;;;;;;;;;;4998796;28;94033;-55
2022/09/30 04:38:48;;;;;;;5.13;2.80;;;;;;;;;;5005654;28;93972;-55
2022/09/30 04:41:16;;;;;;;3.87;2.73;;;;;;;;;;5013293;28;93116;-55
2022/09/30 04:43:45;;;;;;;3.77;2.40;;;;;;;;;;5020224;28;92678;-55
2022/09/30 04:46:14;;;;;;;5.47;3.00;;;;;;;;;;4980815;28;94139;-55
2022/09/30 04:48:44;;;;;;;4.23;2.87;;;;;;;;;;5019506;28;94062;-55
2022/09/30 04:51:14;;;;;;;4.03;2.70;;;;;;;;;;5011325;28;92045;-56
2022/09/30 04:53:42;;;;;;;6.20;3.83;;;;;;;;;;5001045;28;92039;-55
2022/09/30 04:56:10;;;;;;;3.13;2.60;;;;;;;;;;5015464;28;92227;-56
2022/09/30 04:58:39;;;;;;;3.70;2.60;;;;;;;;;;5018581;28;93916;-56
2022/09/30 05:01:07;;;;;;;5.23;2.90;;;;;;;;;;5003189;28;92046;-55
2022/09/30 05:03:36;;;;;;;3.27;2.40;;;;;;;;;;5007339;28;92811;-56
2022/09/30 05:06:04;;;;;;;5.87;2.77;;;;;;;;;;5008425;28;94040;-55
2022/09/30 05:08:34;;;;;;;2.50;1.93;;;;;;;;;;5020649;28;94680;-55
2022/09/30 05:11:02;;;;;;;4.60;2.80;;;;;;;;;;5008914;28;92106;-56
2022/09/30 05:13:31;;;;;;;3.73;2.60;;;;;;;;;;5006648;28;91988;-56
2022/09/30 05:15:59;;;;;;;3.47;2.50;;;;;;;;;;5015765;28;93045;-54
2022/09/30 05:18:28;;;;;;;4.07;2.60;;;;;;;;;;5020126;28;92580;-56
2022/09/30 05:20:57;;;;;;;3.63;2.47;;;;;;;;;;5007762;28;92079;-56
2022/09/30 05:23:25;;;;;;;2.53;2.30;;;;;;;;;;5005069;28;91447;-56
2022/09/30 05:25:55;;;;;;;2.43;1.90;;;;;;;;;;4999778;28;94339;-55
2022/09/30 05:28:24;;;;;;;5.47;2.60;;;;;;;;;;5000351;28;92507;-55
2022/09/30 05:30:55;;;;;;;3.30;2.40;;;;;;;;;;4999904;28;93062;-55
2022/09/30 05:33:23;;;;;;;2.77;2.00;;;;;;;;;;4999567;28;92172;-56
2022/09/30 05:35:52;;;;;;;2.77;1.87;;;;;;;;;;5008179;28;92890;-55
2022/09/30 05:38:20;;;;;;;2.43;1.87;;;;;;;;;;5020479;28;93853;-56
2022/09/30 05:40:48;;;;;;;4.27;2.47;;;;;;;;;;5004056;28;92141;-55
2022/09/30 05:43:18;;;;;;;8.07;2.87;;;;;;;;;;5007832;28;92389;-55
2022/09/30 05:45:52;;;;;;;3.20;2.80;;;;;;;;;;5004840;28;94762;-55
2022/09/30 05:48:20;;;;;;;2.67;2.20;;;;;;;;;;5003323;28;93239;-58
2022/09/30 05:50:51;;;;;;;3.67;2.30;;;;;;;;;;5003248;28;92027;-55
2022/09/30 05:53:20;;;;;;;3.70;2.10;;;;;;;;;;4997693;28;92405;-56
2022/09/30 05:55:48;;;;;;;2.10;1.90;;;;;;;;;;4994787;28;95303;-55
2022/09/30 05:58:18;;;;;;;5.00;1.90;;;;;;;;;;4999480;28;93766;-55
2022/09/30 06:00:47;;;;;;;1.93;1.17;;;;;;;;;;5004525;28;92121;-55
2022/09/30 06:03:15;;;;;;;3.80;1.93;;;;;;;;;;5011095;28;91926;-54
2022/09/30 06:05:44;;;;;;;3.37;2.03;;;;;;;;;;5007346;28;92902;-56
2022/09/30 06:08:13;;;;;;;2.53;2.00;;;;;;;;;;4999416;28;92810;-56
2022/09/30 06:10:41;;;;;;;1.63;1.50;;;;;;;;;;5004701;28;92197;-55
2022/09/30 06:13:09;;;;;;;2.63;1.63;;;;;;;;;;5000835;28;91223;-55
2022/09/30 06:15:40;;;;;;;3.00;1.60;;;;;;;;;;5016048;28;93281;-55
2022/09/30 06:18:08;;;;;;;3.33;1.57;;;;;;;;;;5039345;28;92731;-55
2022/09/30 06:20:37;;;;;;;1.37;1.20;;;;;;;;;;5024757;28;92936;-55
2022/09/30 06:23:05;;;;;;;2.40;1.30;;;;;;;;;;5020161;28;92137;-55
2022/09/30 06:25:33;;;;;;;2.63;1.57;;;;;;;;;;5017901;28;93286;-56
2022/09/30 06:28:02;;;;;;;1.80;1.40;;;;;;;;;;5019553;28;93489;-55
2022/09/30 06:30:30;;;;;;;3.60;1.97;;;;;;;;;;5020695;28;92144;-55
2022/09/30 06:33:04;;;;;;;2.33;1.87;;;;;;;;;;5025998;28;92432;-56
2022/09/30 06:35:32;;;;;;;1.90;1.47;;;;;;;;;;5018581;28;94109;-55
2022/09/30 06:38:00;;;;;;;1.60;1.47;;;;;;;;;;5019310;28;93923;-55
2022/09/30 06:40:28;;;;;;;1.77;1.53;;;;;;;;;;5019609;28;92034;-56
2022/09/30 06:42:59;;;;;;;2.93;1.47;;;;;;;;;;5029799;28;93028;-55
2022/09/30 06:45:27;;;;;;;1.47;1.37;;;;;;;;;;5019484;28;94141;-55
2022/09/30 06:48:00;;;;;;;2.33;1.57;;;;;;;;;;5018461;28;94231;-55
2022/09/30 06:50:30;;;;;;;1.30;1.10;;;;;;;;;;5020459;28;92051;-55
2022/09/30 06:52:59;;;;;;;2.67;1.67;;;;;;;;;;5019504;28;92073;-56
2022/09/30 06:55:27;;;;;;;1.73;1.60;;;;;;;;;;5020768;28;94070;-56
2022/09/30 06:57:55;;;;;;;2.00;1.33;;;;;;;;;;5017300;28;94064;-54
2022/09/30 07:00:24;;;;;;;1.53;1.20;;;;;;;;;;5023405;28;91976;-55
2022/09/30 07:02:55;;;;;;;1.03;0.90;;;;;;;;;;5029003;28;91748;-56
2022/09/30 07:05:24;;;;;;;1.07;0.97;;;;;;;;;;5022078;28;92602;-55
2022/09/30 07:07:55;;;;;;;2.57;1.23;;;;;;;;;;5025758;28;93491;-54
2022/09/30 07:10:23;;;;;;;1.30;1.07;;;;;;;;;;5017469;28;93108;-56
2022/09/30 07:12:51;;;;;;;1.60;0.90;;;;;;;;;;5002840;28;92131;-55
2022/09/30 07:15:22;;;;;;;2.67;1.00;;;;;;;;;;5025719;28;92942;-56
2022/09/30 07:17:53;;;;;;;1.17;0.80;;;;;;;;;;5016010;28;94275;-56
2022/09/30 07:20:22;;;;;;;1.13;1.03;;;;;;;;;;5016123;28;93790;-56
2022/09/30 07:22:50;;;;;;;2.50;1.20;;;;;;;;;;5017153;28;93704;-56
2022/09/30 07:25:20;;;;;;;1.30;1.20;;;;;;;;;;5018317;28;94193;-56
2022/09/30 07:27:48;;;;;;;1.43;0.90;;;;;;;;;;5018730;28;91308;-54
2022/09/30 07:30:17;;;;;;;2.30;1.37;;;;;;;;;;5017001;28;92500;-55
2022/09/30 07:32:54;;;;;;;1.27;1.10;;;;;;;;;;5018635;28;92000;-55
2022/09/30 07:35:22;;;;;;;1.13;1.10;;;;;;;;;;5017540;28;93946;-56
2022/09/30 07:37:50;;;;;;;1.97;1.10;;;;;;;;;;5018043;28;93721;-55
2022/09/30 07:40:20;;;;;;;1.40;0.83;;;;;;;;;;5017992;28;92023;-55
2022/09/30 07:42:48;;;;;;;1.33;1.23;;;;;;;;;;5017195;28;92286;-56
2022/09/30 07:45:18;;;;;;;1.10;1.10;;;;;;;;;;5016477;28;93224;-56
2022/09/30 07:47:46;;;;;;;2.33;1.30;;;;;;;;;;5020819;28;93058;-54
2022/09/30 07:50:20;;;;;;;2.40;1.07;;;;;;;;;;5017007;28;92380;-56
2022/09/30 07:52:49;;;;;;;1.50;1.10;;;;;;;;;;5016266;28;91351;-56
2022/09/30 07:55:17;;;;;;;2.07;0.83;;;;;;;;;;5016547;28;94485;-55
2022/09/30 07:57:47;;;;;;;1.60;1.50;;;;;;;;;;5018196;28;93908;-57
2022/09/30 08:00:15;;;;;;;0.87;0.87;;;;;;;;;;5018572;28;94829;-55
2022/09/30 08:03:03;;;;;;;0.97;0.93;;;;;;;;;;5015459;28;92351;-55
2022/09/30 08:05:32;;;;;;;1.80;1.30;;;;;;;;;;5021158;28;94055;-55
2022/09/30 08:08:00;;;;;;;3.47;1.30;;;;;;;;;;5021223;28;92959;-55
2022/09/30 08:10:28;;;;;;;1.90;1.37;;;;;;;;;;5020741;28;93771;-62
2022/09/30 08:12:58;;;;;;;1.30;1.20;;;;;;;;;;5020957;28;92078;-62
2022/09/30 08:15:30;;;;;;;1.97;1.10;;;;;;;;;;5020325;28;93009;-55
2022/09/30 08:17:58;;;;;;;3.17;1.50;;;;;;;;;;5020955;28;91284;-61
2022/09/30 08:20:26;;;;;;;2.97;1.20;;;;;;;;;;5021483;28;92004;-61
2022/09/30 08:22:55;;;;;;;3.67;1.40;;;;;;;;;;5021444;28;92133;-61
2022/09/30 08:25:23;;;;;;;1.80;1.10;;;;;;;;;;5019603;28;95170;-61
2022/09/30 08:27:51;;;;;;;1.50;1.20;;;;;;;;;;5029804;28;94798;-60
2022/09/30 08:30:21;;;;;;;2.93;1.77;;;;;;;;;;5021409;28;92054;-56
2022/09/30 08:32:49;;;;;;;1.93;1.17;;;;;;;;;;5020573;28;92179;-54
2022/09/30 08:35:18;;;;;;;1.60;1.07;;;;;;;;;;5020927;28;93064;-54
2022/09/30 08:37:46;;;;;;;4.60;1.40;;;;;;;;;;5015979;28;93982;-54
2022/09/30 08:40:18;;;;;;;1.43;1.33;;;;;;;;;;5020994;28;91934;-54
2022/09/30 08:42:53;;;;;;;4.00;1.30;;;;;;;;;;5021603;28;91406;-54
2022/09/30 08:45:30;;;;;;;1.80;0.90;;;;;;;;;;5013291;28;94308;-54
2022/09/30 08:48:01;;;;;;;1.20;1.10;;;;;;;;;;5020971;28;94001;-54
2022/09/30 08:50:31;;;;;;;1.77;0.80;;;;;;;;;;5019439;28;93040;-53
2022/09/30 08:52:59;;;;;;;1.07;0.77;;;;;;;;;;5022005;28;92074;-53
2022/09/30 08:55:30;;;;;;;0.70;0.70;;;;;;;;;;5020863;28;93089;-54
2022/09/30 08:57:58;;;;;;;0.83;0.80;;;;;;;;;;5029638;28;93608;-54
2022/09/30 09:00:28;;;;;;;1.40;0.77;;;;;;;;;;5021276;28;92197;-54
2022/09/30 09:02:56;;;;;;;0.70;0.70;;;;;;;;;;5020588;28;92085;-54
2022/09/30 09:05:28;;;;;;;1.70;0.83;;;;;;;;;;5023186;28;92790;-54
2022/09/30 09:07:59;;;;;;;2.67;1.30;;;;;;;;;;5018868;28;93291;-54
2022/09/30 09:10:28;;;;;;;1.23;1.00;;;;;;;;;;5019658;28;92129;-54
2022/09/30 09:12:58;;;;;;;1.57;1.00;;;;;;;;;;5029989;28;92141;-55
2022/09/30 09:15:31;;;;;;;0.50;0.50;;;;;;;;;;5039597;28;93945;-54
2022/09/30 09:18:14;;;;;;;1.90;0.97;;;;;;;;;;5040103;28;94831;-54
2022/09/30 09:20:54;;;;;;;0.60;0.50;;;;;;;;;;5027510;28;92455;-54
2022/09/30 09:23:22;;;;;;;2.33;0.97;;;;;;;;;;5019515;28;92752;-54
2022/09/30 09:25:51;;;;;;;1.33;1.23;;;;;;;;;;5019483;28;94133;-56
2022/09/30 09:28:24;;;;;;;5.03;1.10;;;;;;;;;;5020106;28;92756;-55
2022/09/30 09:30:55;;;;;;;3.37;1.07;;;;;;;;;;5019522;28;93132;-55
2022/09/30 09:33:26;;;;;;;1.07;0.80;;;;;;;;;;5018814;28;91354;-55
2022/09/30 09:35:55;;;;;;;2.10;1.07;;;;;;;;;;5019786;28;94129;-54
2022/09/30 09:38:24;;;;;;;1.00;0.90;;;;;;;;;;5024572;28;93972;-55
2022/09/30 09:40:59;;;;;;;2.47;0.83;;;;;;;;;;5015323;28;94297;-55
2022/09/30 09:43:30;;;;;;;5.83;1.10;;;;;;;;;;5019411;28;93661;-55
2022/09/30 09:46:00;;;;;;;1.63;1.20;;;;;;;;;;5019560;28;92057;-55
2022/09/30 09:48:29;;;;;;;1.77;1.10;;;;;;;;;;5018787;28;92775;-56
2022/09/30 09:50:59;;;;;;;1.20;1.03;;;;;;;;;;5018055;28;92116;-55
2022/09/30 09:53:35;;;;;;;1.70;0.90;;;;;;;;;;5019411;28;92015;-55
2022/09/30 09:56:07;;;;;;;1.53;1.00;;;;;;;;;;4999716;28;92813;-55
2022/09/30 09:58:36;;;;;;;5.53;1.30;;;;;;;;;;5014613;28;92779;-55
2022/09/30 10:01:31;;;;;;;0.70;0.70;;;;;;;;;;5027294;28;92103;-55
2022/09/30 10:04:14;;;;;;;0.70;0.70;;;;;;;;;;5006636;28;92119;-55
2022/09/30 10:06:43;;;;;;;1.67;0.80;;;;;;;;;;5022549;28;93901;-54
2022/09/30 10:09:22;;;;;;;1.27;1.07;;;;;;;;;;5018110;28;93325;-55
2022/09/30 10:11:50;;;;;;;0.77;0.70;;;;;;;;;;5019265;28;92100;-54
2022/09/30 10:14:19;;;;;;;2.23;1.00;;;;;;;;;;5019740;28;92009;-55
2022/09/30 10:16:48;;;;;;;0.87;0.87;;;;;;;;;;5018179;28;93071;-54
2022/09/30 10:19:19;;;;;;;1.43;1.00;;;;;;;;;;5018000;28;92513;-54
2022/09/30 10:21:47;;;;;;;2.10;0.70;;;;;;;;;;5018399;28;92137;-55
2022/09/30 10:24:19;;;;;;;2.10;1.13;;;;;;;;;;5016827;28;92700;-56
2022/09/30 10:26:48;;;;;;;2.07;1.03;;;;;;;;;;5013052;28;93228;-54
2022/09/30 10:29:25;;;;;;;0.60;0.60;;;;;;;;;;5015958;28;94077;-54
2022/09/30 10:31:56;;;;;;;1.27;0.80;;;;;;;;;;5017342;28;93159;-54
2022/09/30 10:34:27;;;;;;;3.03;1.03;;;;;;;;;;5018628;28;92008;-54
2022/09/30 10:36:55;;;;;;;1.00;0.60;;;;;;;;;;5017782;28;95363;-53
2022/09/30 10:39:25;;;;;;;0.60;0.60;;;;;;;;;;5019694;28;92595;-55
2022/09/30 10:42:00;;;;;;;1.70;0.90;;;;;;;;;;5019756;28;92023;-55
2022/09/30 10:44:29;;;;;;;0.67;0.60;;;;;;;;;;5019702;28;92050;-54
2022/09/30 10:47:01;;;;;;;1.27;1.17;;;;;;;;;;5019179;28;92908;-54
2022/09/30 10:49:31;;;;;;;1.33;0.60;;;;;;;;;;5018144;28;93796;-54
2022/09/30 10:51:59;;;;;;;0.50;0.50;;;;;;;;;;5018356;28;92026;-54
2022/09/30 10:54:35;;;;;;;2.73;0.70;;;;;;;;;;5017509;28;92374;-54
2022/09/30 10:57:04;;;;;;;0.53;0.53;;;;;;;;;;5016016;28;95147;-54
2022/09/30 10:59:33;;;;;;;0.40;0.40;;;;;;;;;;5019017;28;93528;-54
2022/09/30 11:02:06;;;;;;;0.70;0.70;;;;;;;;;;5019365;28;92066;-54
2022/09/30 11:04:35;;;;;;;0.50;0.50;;;;;;;;;;5019348;28;92108;-55
2022/09/30 11:07:09;;;;;;;3.40;0.63;;;;;;;;;;5018479;28;93033;-54
2022/09/30 11:09:38;;;;;;;0.53;0.53;;;;;;;;;;5018706;28;92925;-54
2022/09/30 11:12:10;;;;;;;1.50;0.80;;;;;;;;;;5019580;28;91980;-55
2022/09/30 11:14:40;;;;;;;0.50;0.50;;;;;;;;;;5019676;28;91233;-54
2022/09/30 11:17:11;;;;;;;1.83;0.80;;;;;;;;;;5018741;28;93104;-54
2022/09/30 11:19:41;;;;;;;0.40;0.40;;;;;;;;;;5018808;28;92805;-54
2022/09/30 11:22:15;;;;;;;1.30;0.87;;;;;;;;;;5018422;28;93055;-54
2022/09/30 11:24:44;;;;;;;1.80;0.70;;;;;;;;;;5019397;28;92058;-54
2022/09/30 11:27:13;;;;;;;2.07;0.57;;;;;;;;;;5018814;28;94155;-54
2022/09/30 11:29:50;;;;;;;0.50;0.50;;;;;;;;;;5019354;28;93895;-54
2022/09/30 11:32:25;;;;;;;0.87;0.70;;;;;;;;;;5018193;28;92031;-54
2022/09/30 11:34:57;;;;;;;1.27;0.90;;;;;;;;;;5018928;28;92111;-54
2022/09/30 11:37:28;;;;;;;0.70;0.70;;;;;;;;;;5018780;28;93988;-54
2022/09/30 11:40:00;;;;;;;0.77;0.77;;;;;;;;;;5019275;28;93967;-54
2022/09/30 11:42:30;;;;;;;1.00;0.70;;;;;;;;;;5019057;28;92168;-54
2022/09/30 11:45:00;;;;;;;0.90;0.80;;;;;;;;;;5018841;28;92093;-54
2022/09/30 11:47:33;;;;;;;0.60;0.50;;;;;;;;;;5018120;28;94330;-54
2022/09/30 11:50:19;;;;;;;0.67;0.67;;;;;;;;;;5017650;28;92443;-54
2022/09/30 11:52:49;;;;;;;2.20;0.80;;;;;;;;;;5018449;28;92130;-55
2022/09/30 11:55:35;;;;;;;1.10;0.80;;;;;;;;;;5019108;28;92154;-54
2022/09/30 11:58:04;;;;;;;1.23;1.03;;;;;;;;;;5018342;28;92980;-54
2022/09/30 12:00:53;;;;;;;2.20;0.70;;;;;;;;;;5018257;28;92438;-54
2022/09/30 12:03:23;;;;;;;1.10;0.90;;;;;;;;;;5017986;28;94069;-54
2022/09/30 12:05:53;;;;;;;1.23;0.90;;;;;;;;;;5018836;28;91232;-54
2022/09/30 12:08:22;;;;;;;0.60;0.60;;;;;;;;;;5018551;28;94040;-54
2022/09/30 12:10:51;;;;;;;0.80;0.80;;;;;;;;;;5017637;28;92626;-54
2022/09/30 12:13:21;;;;;;;0.60;0.60;;;;;;;;;;5017548;28;92816;-56
2022/09/30 12:15:50;;;;;;;0.90;0.90;;;;;;;;;;5017345;28;92262;-54
2022/09/30 12:18:18;;;;;;;1.10;0.73;;;;;;;;;;5017417;28;93709;-54
2022/09/30 12:20:48;;;;;;;0.90;0.67;;;;;;;;;;5025012;28;92964;-54
2022/09/30 12:23:17;;;;;;;0.60;0.50;;;;;;;;;;5018317;28;92099;-55
2022/09/30 12:25:46;;;;;;;1.90;0.70;;;;;;;;;;5018086;28;92048;-55
2022/09/30 12:31:05;;;;;;;0.90;0.70;;;;;;;;;;5018281;28;91408;-54
2022/09/30 12:33:38;;;;;;;1.40;0.67;;;;;;;;;;4998324;28;92096;-53
2022/09/30 12:36:12;;;;;;;1.00;0.90;;;;;;;;;;5010776;28;92032;-54
2022/09/30 12:38:55;;;;;;;1.57;1.00;;;;;;;;;;5017504;28;93834;-53
2022/09/30 12:41:27;;;;;;;0.53;0.50;;;;;;;;;;4983872;28;94147;-53
2022/09/30 12:44:01;;;;;;;0.70;0.60;;;;;;;;;;5021073;28;92020;-53
2022/09/30 12:46:41;;;;;;;0.80;0.77;;;;;;;;;;5020030;28;92148;-53
2022/09/30 12:49:11;;;;;;;0.87;0.77;;;;;;;;;;5020309;28;94269;-53
2022/09/30 12:51:43;;;;;;;1.53;0.60;;;;;;;;;;5019799;28;92817;-54
2022/09/30 12:54:13;;;;;;;0.60;0.60;;;;;;;;;;5021707;28;91874;-54
2022/09/30 12:56:41;;;;;;;0.60;0.50;;;;;;;;;;5020904;28;91542;-53
2022/09/30 12:59:10;;;;;;;0.70;0.70;;;;;;;;;;5020718;28;93888;-53
2022/09/30 13:01:38;;;;;;;1.50;0.80;;;;;;;;;;5020312;28;93688;-53
2022/09/30 13:04:17;;;;;;;3.07;0.87;;;;;;;;;;5021187;28;92995;-53
2022/09/30 13:07:04;;;;;;;0.80;0.60;;;;;;;;;;5021280;28;93434;-53
2022/09/30 13:09:34;;;;;;;0.73;0.67;;;;;;;;;;5021063;28;94246;-53
2022/09/30 13:12:16;;;;;;;0.73;0.50;;;;;;;;;;5020166;28;92869;-56
2022/09/30 13:14:44;;;;;;;0.50;0.50;;;;;;;;;;5020183;28;92038;-53
2022/09/30 13:17:25;;;;;;;1.73;0.60;;;;;;;;;;5016942;28;92083;-53
2022/09/30 13:19:56;;;;;;;0.60;0.60;;;;;;;;;;5005480;28;93776;-53
2022/09/30 13:22:48;;;;;;;0.40;0.40;;;;;;;;;;5018874;28;94107;-53
2022/09/30 13:25:19;;;;;;;0.50;0.50;;;;;;;;;;5004746;28;92582;-53
2022/09/30 13:27:47;;;;;;;0.70;0.60;;;;;;;;;;5020739;28;92140;-54
2022/09/30 13:30:35;;;;;;;1.73;0.60;;;;;;;;;;5019682;28;95224;-53
2022/09/30 13:33:27;;;;;;;1.40;0.70;;;;;;;;;;5020654;28;93734;-54
2022/09/30 13:35:57;;;;;;;0.50;0.50;;;;;;;;;;5021169;28;92042;-53
2022/09/30 13:38:34;;;;;;;0.33;0.33;;;;;;;;;;5020888;28;91967;-53
2022/09/30 13:41:05;;;;;;;0.63;0.60;;;;;;;;;;5020114;28;91864;-56
2022/09/30 13:43:35;;;;;;;0.40;0.40;;;;;;;;;;5020535;28;96483;-52
2022/09/30 13:46:05;;;;;;;0.50;0.40;;;;;;;;;;5020443;28;92208;-54
2022/09/30 13:48:34;;;;;;;1.33;0.53;;;;;;;;;;5020527;28;92347;-53
2022/09/30 13:51:04;;;;;;;2.27;0.80;;;;;;;;;;5020134;28;92858;-52
2022/09/30 13:53:33;;;;;;;1.03;0.77;;;;;;;;;;5019219;28;93936;-54
2022/09/30 13:56:05;;;;;;;0.43;0.40;;;;;;;;;;5020268;28;93016;-54
2022/09/30 13:58:45;;;;;;;1.47;0.50;;;;;;;;;;5020548;28;92103;-54
2022/09/30 14:01:15;;;;;;;1.60;0.57;;;;;;;;;;5020190;28;93125;-55
2022/09/30 14:03:49;;;;;;;0.40;0.40;;;;;;;;;;5020456;28;92670;-54
2022/09/30 14:06:21;;;;;;;0.57;0.50;;;;;;;;;;5020660;28;92232;-54
2022/09/30 14:08:55;;;;;;;0.47;0.47;;;;;;;;;;5020726;28;92072;-54
2022/09/30 14:11:30;;;;;;;1.37;0.73;;;;;;;;;;5020237;28;92835;-54
2022/09/30 14:14:04;;;;;;;0.50;0.50;;;;;;;;;;5020133;28;94164;-54
2022/09/30 14:16:42;;;;;;;0.70;0.70;;;;;;;;;;5020051;28;91980;-54
2022/09/30 14:19:15;;;;;;;0.63;0.40;;;;;;;;;;5019490;28;92009;-54
2022/09/30 14:21:43;;;;;;;1.03;0.80;;;;;;;;;;5018680;28;92998;-54
2022/09/30 14:24:12;;;;;;;0.97;0.70;;;;;;;;;;5019803;28;94969;-54
2022/09/30 14:26:56;;;;;;;1.20;0.90;;;;;;;;;;5020254;28;92113;-54
2022/09/30 14:29:27;;;;;;;0.47;0.47;;;;;;;;;;5018426;28;92089;-54
2022/09/30 14:31:55;;;;;;;0.60;0.60;;;;;;;;;;5019187;28;94201;-54
2022/09/30 14:34:24;;;;;;;1.37;1.10;;;;;;;;;;5019442;28;92830;-54
2022/09/30 14:36:52;;;;;;;0.70;0.60;;;;;;;;;;5019773;28;92079;-54
2022/09/30 14:39:21;;;;;;;0.70;0.70;;;;;;;;;;5020125;28;91343;-54
2022/09/30 14:41:51;;;;;;;1.57;0.90;;;;;;;;;;5019310;28;93199;-54
2022/09/30 14:44:20;;;;;;;0.70;0.70;;;;;;;;;;5019211;28;92823;-54
2022/09/30 14:46:50;;;;;;;1.60;0.80;;;;;;;;;;5019094;28;93455;-54
2022/09/30 14:49:18;;;;;;;0.87;0.70;;;;;;;;;;5018974;28;92086;-54
2022/09/30 14:51:47;;;;;;;1.17;1.07;;;;;;;;;;5018374;28;93347;-53
2022/09/30 14:54:19;;;;;;;1.30;0.83;;;;;;;;;;5018469;28;92781;-54
2022/09/30 14:56:48;;;;;;;0.70;0.60;;;;;;;;;;5019716;28;92070;-53
2022/09/30 14:59:17;;;;;;;1.87;0.90;;;;;;;;;;5019336;28;92029;-54
2022/09/30 15:01:46;;;;;;;0.77;0.77;;;;;;;;;;5018872;28;94155;-54
2022/09/30 15:04:17;;;;;;;1.00;0.90;;;;;;;;;;5019383;28;92957;-53
2022/09/30 15:06:46;;;;;;;0.97;0.73;;;;;;;;;;5019244;28;92129;-54